Time;durP1;ratioP1;P1;durP2;ratioP2;P2;SDS_P1;SDS_P2;PMS_P1;PMS_P2;Temp;Humidity;BMP_temperature;BMP_pressure;BME280_temperature;BME280_humidity;BME280_pressure;Samples;Min_cycle;Max_cycle;Signal;HPM_P1;HPM_P2
2022/12/04 00:01:47;;;;;;;31.95;17.60;;;1.90;99.90;;;;;;5005803;28;20434;-75
2022/12/04 00:04:13;;;;;;;33.53;19.03;;;1.90;99.90;;;;;;5026380;28;20785;-74
2022/12/04 00:06:39;;;;;;;34.20;19.67;;;1.90;99.90;;;;;;5021465;28;20427;-76
2022/12/04 00:09:04;;;;;;;32.42;18.65;;;1.90;99.90;;;;;;5029258;28;20419;-75
2022/12/04 00:11:31;;;;;;;35.47;19.83;;;1.90;99.90;;;;;;5020135;28;20411;-76
2022/12/04 00:13:59;;;;;;;34.00;19.40;;;1.90;99.90;;;;;;5013382;28;20934;-74
2022/12/04 00:16:30;;;;;;;36.53;20.30;;;1.90;99.90;;;;;;5027938;28;20482;-75
2022/12/04 00:18:57;;;;;;;35.03;19.43;;;1.80;99.90;;;;;;5027633;28;20414;-75
2022/12/04 00:21:23;;;;;;;33.10;19.05;;;1.80;99.90;;;;;;5028526;28;20427;-75
2022/12/04 00:23:50;;;;;;;32.63;19.17;;;1.80;99.90;;;;;;5030623;28;21026;-75
2022/12/04 00:26:22;;;;;;;31.92;18.45;;;1.80;99.90;;;;;;5037537;28;20482;-74
2022/12/04 00:28:49;;;;;;;32.35;18.40;;;1.80;99.90;;;;;;5009643;28;20441;-75
2022/12/04 00:31:18;;;;;;;33.30;19.23;;;1.70;99.90;;;;;;5027848;28;20410;-74
2022/12/04 00:33:44;;;;;;;34.58;18.90;;;1.70;99.90;;;;;;5030928;28;20786;-75
2022/12/04 00:36:13;;;;;;;32.90;18.63;;;1.70;99.90;;;;;;5010158;28;20411;-75
2022/12/04 00:38:39;;;;;;;34.35;19.67;;;1.70;99.90;;;;;;4993867;28;20423;-75
2022/12/04 00:41:08;;;;;;;31.98;18.52;;;1.70;99.90;;;;;;5010410;28;20526;-75
2022/12/04 00:43:34;;;;;;;33.60;18.90;;;1.70;99.90;;;;;;5031730;28;20869;-75
2022/12/04 00:46:00;;;;;;;36.90;19.40;;;1.70;99.90;;;;;;5029466;28;20435;-74
2022/12/04 00:48:25;;;;;;;37.50;19.80;;;1.70;99.90;;;;;;5026321;28;20463;-75
2022/12/04 00:50:53;;;;;;;35.30;20.17;;;1.60;99.90;;;;;;5023133;28;20406;-74
2022/12/04 00:53:19;;;;;;;36.45;20.33;;;1.70;99.90;;;;;;5027525;28;20399;-73
2022/12/04 00:55:45;;;;;;;39.03;21.02;;;1.70;99.90;;;;;;5010021;28;20403;-72
2022/12/04 00:58:11;;;;;;;37.83;20.70;;;1.60;99.90;;;;;;5014384;28;20437;-73
2022/12/04 01:00:38;;;;;;;37.20;20.60;;;1.70;99.90;;;;;;5036246;28;20505;-73
2022/12/04 01:03:05;;;;;;;36.20;20.05;;;1.70;99.90;;;;;;4987906;28;20444;-73
2022/12/04 01:05:31;;;;;;;33.88;19.42;;;1.60;99.90;;;;;;5012693;28;20408;-73
2022/12/04 01:07:57;;;;;;;32.70;19.27;;;1.70;99.90;;;;;;5027558;28;20418;-74
2022/12/04 01:10:23;;;;;;;31.87;19.43;;;1.60;99.90;;;;;;5027726;28;21148;-73
2022/12/04 01:12:50;;;;;;;33.67;20.10;;;1.60;99.90;;;;;;5029294;28;20407;-73
2022/12/04 01:15:16;;;;;;;31.90;18.80;;;1.60;99.90;;;;;;5031806;28;20481;-73
2022/12/04 01:17:41;;;;;;;33.07;18.63;;;1.60;99.90;;;;;;5012250;28;20486;-74
2022/12/04 01:20:07;;;;;;;34.57;18.93;;;1.50;99.90;;;;;;5035394;28;20395;-73
2022/12/04 01:22:33;;;;;;;32.05;19.52;;;1.50;99.90;;;;;;5023380;28;20403;-73
2022/12/04 01:24:58;;;;;;;31.17;18.65;;;1.50;99.90;;;;;;5035297;28;20411;-74
2022/12/04 01:27:24;;;;;;;35.13;20.07;;;1.40;99.90;;;;;;5016452;28;20403;-75
2022/12/04 01:29:50;;;;;;;34.60;19.47;;;1.40;99.90;;;;;;5031046;28;20407;-75
2022/12/04 01:32:15;;;;;;;33.67;19.63;;;1.50;99.90;;;;;;5026498;28;20404;-74
2022/12/04 01:34:41;;;;;;;34.30;19.50;;;1.40;99.90;;;;;;5026629;28;20410;-75
2022/12/04 01:37:07;;;;;;;35.07;21.07;;;1.50;99.90;;;;;;5034696;28;20762;-74
2022/12/04 01:39:35;;;;;;;35.83;20.67;;;1.40;99.90;;;;;;5034889;28;20453;-75
2022/12/04 01:42:01;;;;;;;34.85;20.23;;;1.40;99.90;;;;;;5013412;28;21005;-75
2022/12/04 01:44:28;;;;;;;37.88;19.60;;;1.40;99.90;;;;;;5021448;28;20429;-75
2022/12/04 01:46:56;;;;;;;35.95;20.75;;;1.40;99.90;;;;;;5003580;28;20402;-74
2022/12/04 01:49:30;;;;;;;34.97;19.80;;;1.40;99.90;;;;;;5022107;28;20394;-75
2022/12/04 01:52:02;;;;;;;34.05;19.90;;;1.40;99.90;;;;;;5015980;28;20415;-72
2022/12/04 01:54:34;;;;;;;36.20;21.25;;;1.40;99.90;;;;;;5017123;28;20766;-73
2022/12/04 01:57:10;;;;;;;34.00;19.43;;;1.40;99.90;;;;;;5030412;28;20395;-73
2022/12/04 01:59:41;;;;;;;34.97;19.50;;;1.40;99.90;;;;;;5031375;28;20407;-73
2022/12/04 02:02:14;;;;;;;36.63;20.15;;;1.40;99.90;;;;;;5031105;28;20431;-74
2022/12/04 02:04:42;;;;;;;35.90;20.70;;;1.40;99.90;;;;;;5010611;28;20752;-74
2022/12/04 02:07:08;;;;;;;35.95;20.00;;;1.40;99.90;;;;;;5027067;28;20974;-73
2022/12/04 02:09:36;;;;;;;37.78;21.05;;;1.40;99.90;;;;;;5030978;28;20407;-74
2022/12/04 02:12:31;;;;;;;38.10;21.00;;;1.40;99.90;;;;;;5030378;28;20403;-74
2022/12/04 02:15:35;;;;;;;36.60;21.02;;;1.40;99.90;;;;;;5025300;28;20419;-74
2022/12/04 02:18:01;;;;;;;38.45;21.30;;;1.40;99.90;;;;;;5010332;28;20419;-74
2022/12/04 02:20:56;;;;;;;36.73;20.60;;;1.30;99.90;;;;;;4985045;28;20529;-74
2022/12/04 02:23:52;;;;;;;37.90;21.88;;;1.30;99.90;;;;;;5025327;28;20407;-74
2022/12/04 02:26:47;;;;;;;38.50;21.73;;;1.30;99.90;;;;;;5014781;28;20416;-74
2022/12/04 02:29:37;;;;;;;37.28;22.00;;;1.30;99.90;;;;;;5028263;28;20403;-74
2022/12/04 02:32:21;;;;;;;37.90;22.25;;;1.30;99.90;;;;;;5028632;28;20431;-74
2022/12/04 02:35:13;;;;;;;38.23;22.03;;;1.30;99.90;;;;;;5012184;28;20418;-74
2022/12/04 02:38:21;;;;;;;41.57;23.17;;;1.30;99.90;;;;;;5016055;28;20411;-74
2022/12/04 02:41:29;;;;;;;41.65;23.77;;;1.30;99.90;;;;;;4934060;29;20446;-75
2022/12/04 02:44:08;;;;;;;41.60;24.80;;;1.20;99.90;;;;;;4926944;29;20431;-74
2022/12/04 02:46:37;;;;;;;41.20;24.30;;;1.30;99.90;;;;;;5012376;28;20422;-73
2022/12/04 02:49:07;;;;;;;42.65;25.80;;;1.20;99.90;;;;;;5028524;28;20411;-74
2022/12/04 02:51:38;;;;;;;41.05;24.23;;;1.20;99.90;;;;;;5034709;28;21084;-73
2022/12/04 02:54:09;;;;;;;41.97;23.92;;;1.20;99.90;;;;;;4995331;28;20816;-73
2022/12/04 02:56:41;;;;;;;41.00;24.85;;;1.20;99.90;;;;;;5028907;28;20410;-73
2022/12/04 02:59:13;;;;;;;42.53;25.58;;;1.20;99.90;;;;;;5036158;28;20483;-74
2022/12/04 03:01:42;;;;;;;41.58;24.60;;;1.20;99.90;;;;;;5029192;28;20929;-74
2022/12/04 03:04:18;;;;;;;42.28;25.70;;;1.10;99.90;;;;;;5031789;28;20422;-74
2022/12/04 03:06:49;;;;;;;42.33;26.02;;;1.10;99.90;;;;;;5029926;28;20458;-74
2022/12/04 03:09:23;;;;;;;45.78;26.40;;;1.10;99.90;;;;;;4996419;28;20547;-73
2022/12/04 03:11:55;;;;;;;44.38;26.08;;;1.20;99.90;;;;;;5014441;28;20447;-74
2022/12/04 03:14:28;;;;;;;44.58;26.67;;;1.10;99.90;;;;;;5015272;28;20875;-74
2022/12/04 03:17:01;;;;;;;45.53;26.75;;;1.10;99.90;;;;;;5009178;28;20474;-74
2022/12/04 03:19:38;;;;;;;48.20;28.13;;;1.10;99.90;;;;;;4995731;28;20504;-73
2022/12/04 03:22:09;;;;;;;45.23;26.33;;;1.20;99.90;;;;;;5008916;28;20432;-74
2022/12/04 03:24:53;;;;;;;45.95;26.33;;;1.10;99.90;;;;;;4995122;28;20475;-74
2022/12/04 03:27:41;;;;;;;46.97;27.00;;;1.10;99.90;;;;;;4999902;28;20417;-74
2022/12/04 03:30:15;;;;;;;48.00;28.05;;;1.10;99.90;;;;;;4999320;28;21064;-74
2022/12/04 03:32:49;;;;;;;47.10;27.70;;;1.10;99.90;;;;;;4992374;28;20421;-74
2022/12/04 03:35:17;;;;;;;45.75;27.42;;;1.10;99.90;;;;;;5013023;28;20413;-74
2022/12/04 03:37:55;;;;;;;47.72;28.55;;;1.10;99.90;;;;;;4990710;28;20417;-75
2022/12/04 03:40:22;;;;;;;46.92;28.70;;;1.20;99.90;;;;;;4987807;28;20483;-74
2022/12/04 03:43:01;;;;;;;48.67;27.67;;;1.10;99.90;;;;;;5003547;28;20406;-74
2022/12/04 03:45:37;;;;;;;47.00;29.95;;;1.10;99.90;;;;;;5012189;28;20484;-74
2022/12/04 03:48:18;;;;;;;46.93;27.40;;;1.10;99.90;;;;;;4991251;28;20488;-74
2022/12/04 03:51:18;;;;;;;50.35;28.88;;;1.10;99.90;;;;;;5014692;28;20419;-75
2022/12/04 03:53:55;;;;;;;49.83;28.95;;;1.10;99.90;;;;;;4990206;28;20415;-74
2022/12/04 03:56:25;;;;;;;49.85;29.65;;;1.10;99.90;;;;;;5005103;28;20415;-73
2022/12/04 03:59:03;;;;;;;49.60;29.48;;;1.10;99.90;;;;;;5012551;28;20407;-73
2022/12/04 04:01:41;;;;;;;48.67;28.77;;;1.10;99.90;;;;;;4975065;28;20441;-72
2022/12/04 04:04:12;;;;;;;52.33;28.80;;;1.10;99.90;;;;;;4990374;28;20420;-73
2022/12/04 04:06:54;;;;;;;49.30;28.40;;;1.10;99.90;;;;;;5003280;28;20430;-73
2022/12/04 04:09:23;;;;;;;48.38;28.20;;;1.10;99.90;;;;;;4997275;28;20415;-73
2022/12/04 04:12:01;;;;;;;50.00;28.73;;;1.10;99.90;;;;;;5015348;28;20494;-73
2022/12/04 04:25:56;;;;;;;51.63;29.98;;;1.10;99.90;;;;;;5013301;28;20420;-72
2022/12/04 04:28:41;;;;;;;50.72;29.20;;;1.10;99.90;;;;;;5004157;28;20419;-74
2022/12/04 04:31:51;;;;;;;53.85;30.58;;;1.10;99.90;;;;;;4995593;28;20401;-74
2022/12/04 04:34:26;;;;;;;48.83;29.48;;;1.10;99.90;;;;;;5004214;28;21187;-73
2022/12/04 04:37:13;;;;;;;49.97;29.17;;;1.10;99.90;;;;;;5011897;28;20440;-73
2022/12/04 04:39:44;;;;;;;49.30;29.40;;;1.10;99.90;;;;;;4988269;28;20922;-73
2022/12/04 04:42:21;;;;;;;47.00;28.80;;;1.10;99.90;;;;;;5001342;28;20525;-73
2022/12/04 04:44:54;;;;;;;50.92;29.58;;;1.10;99.90;;;;;;5006081;28;20428;-73
2022/12/04 04:47:39;;;;;;;49.20;28.83;;;1.10;99.90;;;;;;5017832;28;20401;-74
2022/12/04 04:50:09;;;;;;;50.00;29.03;;;1.00;99.90;;;;;;5011121;28;21004;-73
2022/12/04 04:52:38;;;;;;;46.33;27.27;;;1.00;99.90;;;;;;5009194;28;20415;-74
2022/12/04 04:55:04;;;;;;;49.85;29.67;;;1.00;99.90;;;;;;5024893;28;20455;-74
2022/12/04 04:57:34;;;;;;;47.58;28.42;;;1.00;99.90;;;;;;5011984;28;20420;-74
2022/12/04 05:00:01;;;;;;;49.03;28.83;;;1.10;99.90;;;;;;5010600;28;20919;-74
2022/12/04 05:02:27;;;;;;;48.05;28.60;;;1.00;99.90;;;;;;5001311;28;20947;-74
2022/12/04 05:04:54;;;;;;;48.03;29.80;;;1.00;99.90;;;;;;5026876;28;20400;-73
2022/12/04 05:07:20;;;;;;;46.87;28.17;;;1.00;99.90;;;;;;5012999;28;20416;-73
2022/12/04 05:09:45;;;;;;;48.67;29.27;;;1.00;99.90;;;;;;5011802;28;20779;-73
2022/12/04 05:12:11;;;;;;;47.78;28.65;;;1.00;99.90;;;;;;5010560;28;20408;-73
2022/12/04 05:14:37;;;;;;;48.70;29.40;;;1.00;99.90;;;;;;5011161;28;20416;-73
2022/12/04 05:17:04;;;;;;;48.77;28.90;;;1.00;99.90;;;;;;5011889;28;20496;-73
2022/12/04 05:19:52;;;;;;;50.00;29.60;;;1.10;99.90;;;;;;5010237;28;20926;-73
2022/12/04 05:22:19;;;;;;;48.80;28.53;;;1.10;99.90;;;;;;5012579;28;20431;-75
2022/12/04 05:24:44;;;;;;;52.28;30.10;;;1.10;99.90;;;;;;4996091;28;20864;-73
2022/12/04 05:27:10;;;;;;;50.47;30.53;;;1.10;99.90;;;;;;5011404;28;20408;-73
2022/12/04 05:29:36;;;;;;;49.83;28.98;;;1.10;99.90;;;;;;5013258;28;20419;-73
2022/12/04 05:32:01;;;;;;;51.97;30.83;;;1.10;99.90;;;;;;5014366;28;20411;-73
2022/12/04 05:34:27;;;;;;;49.87;29.53;;;1.10;99.90;;;;;;5013182;28;20902;-73
2022/12/04 05:36:52;;;;;;;52.33;30.50;;;1.10;99.90;;;;;;5024045;28;20744;-73
2022/12/04 05:39:18;;;;;;;50.60;29.33;;;1.10;99.90;;;;;;5012699;28;20412;-73
2022/12/04 05:41:44;;;;;;;51.47;30.20;;;1.10;99.90;;;;;;5007859;28;20427;-73
2022/12/04 05:44:09;;;;;;;49.55;29.77;;;1.10;99.90;;;;;;5003655;28;20418;-73
2022/12/04 05:46:35;;;;;;;49.67;29.70;;;1.20;99.90;;;;;;5000398;28;20428;-73
2022/12/04 05:49:00;;;;;;;49.97;30.20;;;1.20;99.90;;;;;;5011669;28;20945;-73
2022/12/04 05:51:26;;;;;;;51.78;29.63;;;1.20;99.90;;;;;;5010919;28;20919;-73
2022/12/04 05:53:52;;;;;;;50.37;30.40;;;1.20;99.90;;;;;;5011887;28;20420;-73
2022/12/04 05:56:17;;;;;;;50.92;29.70;;;1.20;99.90;;;;;;5009334;28;20438;-73
2022/12/04 05:58:43;;;;;;;50.83;30.25;;;1.20;99.90;;;;;;5016357;28;20915;-73
2022/12/04 06:01:15;;;;;;;50.37;29.50;;;1.20;99.90;;;;;;5013421;28;20471;-74
2022/12/04 06:03:41;;;;;;;52.17;29.80;;;1.10;99.90;;;;;;5011095;28;20409;-73
2022/12/04 06:06:15;;;;;;;52.80;31.70;;;1.20;99.90;;;;;;5011152;28;20408;-74
2022/12/04 06:08:40;;;;;;;54.83;31.00;;;1.10;99.90;;;;;;5000936;28;20960;-73
2022/12/04 06:11:11;;;;;;;53.72;30.58;;;1.20;99.90;;;;;;5006073;28;20411;-73
2022/12/04 06:13:36;;;;;;;56.42;31.67;;;1.20;99.90;;;;;;5006984;28;20494;-73
2022/12/04 06:16:02;;;;;;;53.67;30.70;;;1.20;99.90;;;;;;4994144;28;20438;-74
2022/12/04 06:18:28;;;;;;;53.63;30.83;;;1.20;99.90;;;;;;5007821;28;20489;-73
2022/12/04 06:20:57;;;;;;;52.37;30.47;;;1.20;99.90;;;;;;5011929;28;20444;-74
2022/12/04 06:23:23;;;;;;;53.25;30.80;;;1.20;99.90;;;;;;5013453;28;20416;-74
2022/12/04 06:25:48;;;;;;;51.10;29.87;;;1.20;99.90;;;;;;4984795;28;20409;-74
2022/12/04 06:28:14;;;;;;;53.40;30.70;;;1.20;99.90;;;;;;5004658;28;20493;-73
2022/12/04 06:30:40;;;;;;;50.50;29.17;;;1.20;99.90;;;;;;5015135;28;20597;-73
2022/12/04 06:33:05;;;;;;;51.80;29.90;;;1.20;99.90;;;;;;5006891;28;20412;-74
2022/12/04 06:35:31;;;;;;;48.83;29.57;;;1.20;99.90;;;;;;5016246;28;20420;-74
2022/12/04 06:37:56;;;;;;;51.15;29.25;;;1.20;99.90;;;;;;5006791;28;20416;-74
2022/12/04 06:40:22;;;;;;;50.03;29.63;;;1.20;99.90;;;;;;4986135;28;21066;-74
2022/12/04 06:42:47;;;;;;;53.40;30.75;;;1.30;99.90;;;;;;5023529;28;20585;-72
2022/12/04 06:45:14;;;;;;;51.23;29.73;;;1.20;99.90;;;;;;5029175;28;20399;-73
2022/12/04 06:47:42;;;;;;;50.95;29.60;;;1.20;99.90;;;;;;5002980;28;20461;-74
2022/12/04 06:50:08;;;;;;;51.85;30.75;;;1.20;99.90;;;;;;5011426;28;20490;-74
2022/12/04 06:52:34;;;;;;;50.53;28.67;;;1.20;99.90;;;;;;5028477;28;20837;-74
2022/12/04 06:54:59;;;;;;;52.80;30.02;;;1.20;99.90;;;;;;5029548;28;20411;-74
2022/12/04 06:57:25;;;;;;;51.63;30.45;;;1.30;99.90;;;;;;5026487;28;20816;-73
2022/12/04 06:59:50;;;;;;;50.27;30.13;;;1.30;99.90;;;;;;5017168;28;21012;-73
2022/12/04 07:02:16;;;;;;;50.47;31.45;;;1.30;99.90;;;;;;5028411;28;20430;-74
2022/12/04 07:04:42;;;;;;;50.20;30.30;;;1.30;99.90;;;;;;4994037;28;20861;-73
2022/12/04 07:07:08;;;;;;;54.60;30.47;;;1.30;99.90;;;;;;5007590;28;20405;-74
2022/12/04 07:09:35;;;;;;;51.03;30.77;;;1.30;99.90;;;;;;5028853;28;20450;-74
2022/12/04 07:12:00;;;;;;;52.15;30.98;;;1.30;99.90;;;;;;5018024;28;20405;-74
2022/12/04 07:14:26;;;;;;;51.25;30.13;;;1.30;99.90;;;;;;5023130;28;20412;-74
2022/12/04 07:16:51;;;;;;;49.43;29.93;;;1.30;99.90;;;;;;5024960;28;20409;-74
2022/12/04 07:19:17;;;;;;;49.97;29.30;;;1.30;99.90;;;;;;5031008;28;20754;-73
2022/12/04 07:21:43;;;;;;;52.03;29.58;;;1.30;99.90;;;;;;5012912;28;21564;-74
2022/12/04 07:24:14;;;;;;;50.83;29.17;;;1.30;99.90;;;;;;5012313;28;20482;-74
2022/12/04 07:26:39;;;;;;;51.35;29.58;;;1.40;99.90;;;;;;5030680;28;20399;-73
2022/12/04 07:29:05;;;;;;;50.07;29.67;;;1.40;99.90;;;;;;5028293;28;20411;-74
2022/12/04 07:31:31;;;;;;;50.10;29.73;;;1.40;99.90;;;;;;5019376;28;20417;-75
2022/12/04 07:33:57;;;;;;;47.70;27.60;;;1.40;99.90;;;;;;5013824;28;20427;-74
2022/12/04 07:36:24;;;;;;;48.97;28.80;;;1.40;99.90;;;;;;5030546;28;20414;-73
2022/12/04 07:38:50;;;;;;;49.25;28.92;;;1.40;99.90;;;;;;5029133;28;20441;-74
2022/12/04 07:41:16;;;;;;;47.10;28.42;;;1.40;99.90;;;;;;5010769;28;20466;-74
2022/12/04 07:43:42;;;;;;;46.28;28.02;;;1.40;99.90;;;;;;5028317;28;20404;-73
2022/12/04 07:46:12;;;;;;;46.80;29.05;;;1.40;99.90;;;;;;5028886;28;20412;-73
2022/12/04 07:48:38;;;;;;;47.05;28.05;;;1.40;99.90;;;;;;5011017;28;20412;-73
2022/12/04 07:51:09;;;;;;;47.00;27.73;;;1.40;99.90;;;;;;5010303;28;20993;-74
2022/12/04 07:53:36;;;;;;;47.38;28.15;;;1.50;99.90;;;;;;5019188;28;20413;-73
2022/12/04 07:56:03;;;;;;;49.28;28.38;;;1.50;99.90;;;;;;5012907;28;20449;-73
2022/12/04 07:58:29;;;;;;;43.78;27.23;;;1.50;99.90;;;;;;5028285;28;20411;-74
2022/12/04 08:00:54;;;;;;;46.40;27.90;;;1.50;99.90;;;;;;5028321;28;20784;-74
2022/12/04 08:03:20;;;;;;;45.57;27.53;;;1.50;99.90;;;;;;5027212;28;20492;-72
2022/12/04 08:05:45;;;;;;;43.50;27.70;;;1.60;99.90;;;;;;5030113;28;20410;-73
2022/12/04 08:08:11;;;;;;;46.92;30.92;;;1.50;99.90;;;;;;5009997;28;20416;-74
2022/12/04 08:10:39;;;;;;;47.27;30.50;;;1.60;99.90;;;;;;5029479;28;20414;-74
2022/12/04 08:13:05;;;;;;;43.78;26.90;;;1.60;99.90;;;;;;5028614;28;20526;-74
2022/12/04 08:15:30;;;;;;;77.53;47.33;;;1.60;99.90;;;;;;5028559;28;20494;-74
2022/12/04 08:17:56;;;;;;;43.97;27.10;;;1.60;99.90;;;;;;5026662;28;20453;-75
2022/12/04 08:20:22;;;;;;;42.33;26.37;;;1.60;99.90;;;;;;5029182;28;20411;-74
2022/12/04 08:22:47;;;;;;;41.47;27.03;;;1.70;99.90;;;;;;5029116;28;20939;-74
2022/12/04 08:25:13;;;;;;;41.72;25.70;;;1.70;99.90;;;;;;5025641;28;20899;-74
2022/12/04 08:27:39;;;;;;;42.30;26.05;;;1.70;99.90;;;;;;5026251;28;20395;-74
2022/12/04 08:30:05;;;;;;;43.60;26.50;;;1.70;99.90;;;;;;5026608;28;20827;-74
2022/12/04 08:32:30;;;;;;;41.70;25.17;;;1.80;99.90;;;;;;5017858;28;20415;-74
2022/12/04 08:34:56;;;;;;;41.77;25.20;;;1.70;99.90;;;;;;5010493;28;20402;-74
2022/12/04 08:37:22;;;;;;;39.70;24.90;;;1.80;99.90;;;;;;5008358;28;20781;-74
2022/12/04 08:39:47;;;;;;;38.42;24.17;;;1.80;99.90;;;;;;5010120;28;20415;-75
2022/12/04 08:42:13;;;;;;;37.80;23.70;;;1.80;99.90;;;;;;5008694;28;20462;-75
2022/12/04 08:44:38;;;;;;;41.67;25.27;;;1.90;99.90;;;;;;5027138;28;20571;-74
2022/12/04 08:47:04;;;;;;;43.40;26.60;;;1.90;99.90;;;;;;5022455;28;20403;-75
2022/12/04 08:49:30;;;;;;;42.40;27.37;;;1.90;99.90;;;;;;5020083;28;20415;-75
2022/12/04 08:51:55;;;;;;;37.85;24.10;;;2.00;99.90;;;;;;5008876;28;20529;-74
2022/12/04 08:54:21;;;;;;;38.60;23.70;;;2.00;99.90;;;;;;5031845;28;20414;-74
2022/12/04 08:56:46;;;;;;;38.60;23.33;;;2.10;99.90;;;;;;5011284;28;20967;-75
2022/12/04 08:59:13;;;;;;;36.35;22.33;;;2.10;99.90;;;;;;5029084;28;20401;-74
2022/12/04 09:01:38;;;;;;;37.25;23.73;;;2.10;99.90;;;;;;5027220;28;20423;-74
2022/12/04 09:04:04;;;;;;;37.03;22.63;;;2.10;99.90;;;;;;5027227;28;20455;-74
2022/12/04 09:06:30;;;;;;;34.73;22.30;;;2.20;99.90;;;;;;5028090;28;20411;-74
2022/12/04 09:08:56;;;;;;;35.38;21.75;;;2.20;99.90;;;;;;5030434;28;20463;-74
2022/12/04 09:11:24;;;;;;;34.22;21.33;;;2.30;99.90;;;;;;5010353;28;20416;-74
2022/12/04 09:13:50;;;;;;;32.30;21.75;;;2.30;99.90;;;;;;5027339;28;20826;-74
2022/12/04 09:16:18;;;;;;;30.13;19.53;;;2.40;99.90;;;;;;5027251;28;20406;-74
2022/12/04 09:18:44;;;;;;;30.15;18.95;;;2.40;99.90;;;;;;5026584;28;20486;-74
2022/12/04 09:21:13;;;;;;;30.10;19.90;;;2.50;99.90;;;;;;5029203;28;20518;-74
2022/12/04 09:23:39;;;;;;;31.80;20.55;;;2.50;99.90;;;;;;5014005;28;20416;-73
2022/12/04 09:26:14;;;;;;;34.42;21.45;;;2.60;99.90;;;;;;5028773;28;20469;-74
2022/12/04 09:28:40;;;;;;;34.25;21.42;;;2.60;99.90;;;;;;5025462;28;20928;-73
2022/12/04 09:31:05;;;;;;;36.40;22.93;;;2.60;99.90;;;;;;5022804;28;20438;-73
2022/12/04 09:33:31;;;;;;;35.40;22.30;;;2.60;99.90;;;;;;5028687;28;20413;-73
2022/12/04 09:35:59;;;;;;;35.15;21.88;;;2.50;99.90;;;;;;5026252;28;20452;-75
2022/12/04 09:38:26;;;;;;;37.75;22.58;;;2.50;99.90;;;;;;5029022;28;20446;-75
2022/12/04 09:41:04;;;;;;;36.25;22.35;;;2.50;99.90;;;;;;5031303;28;20516;-74
2022/12/04 09:43:38;;;;;;;35.28;21.88;;;2.60;99.90;;;;;;5013071;28;20419;-74
2022/12/04 09:46:14;;;;;;;35.40;22.88;;;2.50;99.90;;;;;;5030935;28;20415;-75
2022/12/04 09:48:43;;;;;;;72.75;45.58;;;2.50;99.90;;;;;;5013322;28;21012;-78
2022/12/04 09:51:17;;;;;;;51.10;33.50;;;2.50;99.90;;;;;;5031027;28;20401;-75
2022/12/04 09:53:51;;;;;;;40.88;26.13;;;2.60;99.90;;;;;;5037063;28;20440;-75
2022/12/04 09:56:18;;;;;;;36.35;23.52;;;2.60;99.90;;;;;;5040474;28;20909;-75
2022/12/04 09:58:56;;;;;;;33.00;21.10;;;2.60;99.90;;;;;;5032435;28;20407;-74
2022/12/04 10:01:30;;;;;;;33.30;20.67;;;2.60;99.90;;;;;;5040119;28;20875;-75
2022/12/04 10:03:56;;;;;;;32.07;19.73;;;2.70;99.90;;;;;;5026162;28;20415;-75
2022/12/04 10:06:44;;;;;;;30.70;19.40;;;2.70;99.90;;;;;;5024217;28;20404;-74
2022/12/04 10:09:17;;;;;;;30.65;18.85;;;2.70;99.90;;;;;;5031099;28;20927;-74
2022/12/04 10:12:12;;;;;;;30.77;19.55;;;2.70;99.90;;;;;;5040725;28;20416;-74
2022/12/04 10:14:40;;;;;;;30.40;17.77;;;2.80;99.90;;;;;;5011968;28;20413;-73
2022/12/04 10:17:17;;;;;;;27.00;17.42;;;2.80;99.90;;;;;;5017743;28;20587;-74
2022/12/04 10:20:24;;;;;;;24.90;16.17;;;2.80;99.90;;;;;;5022807;28;20521;-74
2022/12/04 10:22:59;;;;;;;22.88;14.25;;;2.80;99.90;;;;;;4978619;28;20424;-75
2022/12/04 10:25:25;;;;;;;22.27;15.25;;;2.90;99.90;;;;;;5030445;28;20779;-74
2022/12/04 10:28:19;;;;;;;23.33;15.45;;;2.90;99.90;;;;;;5045496;28;20437;-75
2022/12/04 10:30:47;;;;;;;24.15;15.93;;;3.00;99.90;;;;;;5041117;28;20923;-75
2022/12/04 10:33:27;;;;;;;25.13;16.05;;;3.00;99.90;;;;;;5048731;28;20398;-75
2022/12/04 10:35:53;;;;;;;24.65;16.10;;;3.00;99.90;;;;;;5044292;28;20398;-75
2022/12/04 10:38:50;;;;;;;22.23;15.35;;;3.00;99.90;;;;;;5034871;28;20413;-75
2022/12/04 10:41:36;;;;;;;22.23;14.00;;;3.00;99.90;;;;;;5003634;28;20573;-75
2022/12/04 10:44:02;;;;;;;23.25;15.25;;;3.00;99.90;;;;;;5030686;28;20521;-75
2022/12/04 10:46:31;;;;;;;23.02;15.85;;;3.00;99.90;;;;;;5037933;28;20514;-75
2022/12/04 10:48:57;;;;;;;24.17;16.17;;;3.10;99.90;;;;;;5023350;28;20427;-75
2022/12/04 10:51:23;;;;;;;24.45;15.52;;;3.10;99.90;;;;;;5024309;28;20431;-74
2022/12/04 10:53:50;;;;;;;25.00;15.87;;;3.10;99.90;;;;;;5026872;28;20419;-74
2022/12/04 10:56:17;;;;;;;24.13;15.52;;;3.10;99.90;;;;;;5031343;28;20439;-74
2022/12/04 10:59:04;;;;;;;23.73;17.15;;;3.20;99.90;;;;;;5028796;28;21001;-74
2022/12/04 11:01:34;;;;;;;23.52;16.25;;;3.10;99.90;;;;;;5026224;28;20434;-74
2022/12/04 11:04:08;;;;;;;26.60;16.95;;;3.10;99.90;;;;;;5028783;28;20446;-74
2022/12/04 11:06:34;;;;;;;25.37;16.43;;;3.10;99.90;;;;;;5034887;28;20431;-74
2022/12/04 11:09:02;;;;;;;26.02;16.95;;;3.10;99.90;;;;;;5012612;28;20952;-75
2022/12/04 11:11:30;;;;;;;26.67;17.60;;;3.20;99.90;;;;;;5007563;28;20479;-77
2022/12/04 11:14:16;;;;;;;25.38;17.00;;;3.20;99.90;;;;;;5008027;28;20431;-74
2022/12/04 11:16:44;;;;;;;25.57;17.23;;;3.20;99.90;;;;;;5024617;28;20414;-73
2022/12/04 11:19:31;;;;;;;27.75;17.80;;;3.20;99.90;;;;;;5020818;28;20913;-73
2022/12/04 11:22:11;;;;;;;26.05;17.10;;;3.20;99.90;;;;;;5024122;28;20433;-73
2022/12/04 11:24:39;;;;;;;27.15;17.75;;;3.20;99.90;;;;;;5003170;28;20419;-73
2022/12/04 11:27:06;;;;;;;27.70;17.52;;;3.20;99.90;;;;;;5024949;28;20409;-73
2022/12/04 11:29:40;;;;;;;26.70;18.27;;;3.20;99.90;;;;;;5024567;28;20453;-73
2022/12/04 11:32:27;;;;;;;26.55;17.67;;;3.20;99.90;;;;;;5021667;28;20416;-73
2022/12/04 11:34:56;;;;;;;27.08;17.65;;;3.20;99.90;;;;;;5022590;28;20491;-73
2022/12/04 11:37:26;;;;;;;25.80;16.45;;;3.20;99.90;;;;;;5024016;28;20395;-73
2022/12/04 11:39:53;;;;;;;24.85;16.15;;;3.20;99.90;;;;;;5019502;28;20405;-73
2022/12/04 11:42:25;;;;;;;25.77;16.70;;;3.20;99.90;;;;;;5006630;28;20991;-73
2022/12/04 11:45:02;;;;;;;26.20;18.10;;;3.20;99.90;;;;;;5020600;28;21683;-73
2022/12/04 11:47:31;;;;;;;24.80;16.47;;;3.30;99.90;;;;;;5008001;28;20446;-73
2022/12/04 11:50:22;;;;;;;23.43;15.60;;;3.30;99.90;;;;;;5002903;28;20398;-73
2022/12/04 11:53:04;;;;;;;23.37;15.63;;;3.30;99.90;;;;;;5005458;28;20496;-73
2022/12/04 11:55:32;;;;;;;23.20;15.35;;;3.30;99.90;;;;;;5008696;28;20408;-73
2022/12/04 11:58:26;;;;;;;23.23;15.40;;;3.30;99.90;;;;;;5008407;28;20962;-73
2022/12/04 12:01:24;;;;;;;24.58;16.05;;;3.30;99.90;;;;;;4995781;28;20499;-73
2022/12/04 12:04:09;;;;;;;24.77;16.75;;;3.30;99.90;;;;;;5009462;28;20831;-73
2022/12/04 12:06:51;;;;;;;24.83;16.30;;;3.30;99.90;;;;;;5008919;28;20756;-73
2022/12/04 12:09:44;;;;;;;25.88;16.85;;;3.30;99.90;;;;;;5015410;28;20510;-73
2022/12/04 12:12:21;;;;;;;24.40;17.05;;;3.30;99.90;;;;;;5028256;28;20948;-73
2022/12/04 12:15:25;;;;;;;28.35;17.55;;;3.30;99.90;;;;;;5028125;28;20447;-73
2022/12/04 12:18:26;;;;;;;29.35;18.60;;;3.30;99.90;;;;;;5010101;28;20876;-73
2022/12/04 12:21:27;;;;;;;27.05;18.25;;;3.30;99.90;;;;;;5010562;28;20437;-73
2022/12/04 12:24:20;;;;;;;27.30;18.08;;;3.30;99.90;;;;;;5011279;28;20763;-73
2022/12/04 12:27:27;;;;;;;29.38;20.55;;;3.30;99.90;;;;;;5040592;28;20423;-73
2022/12/04 12:30:13;;;;;;;30.75;20.45;;;3.40;99.90;;;;;;4980744;28;20477;-73
2022/12/04 12:32:44;;;;;;;27.85;18.13;;;3.40;99.90;;;;;;5018152;28;20588;-73
2022/12/04 12:35:38;;;;;;;28.05;17.75;;;3.40;99.90;;;;;;5022259;28;20510;-72
2022/12/04 12:38:25;;;;;;;28.20;17.80;;;3.30;99.90;;;;;;5016884;28;20808;-73
2022/12/04 12:41:09;;;;;;;27.90;17.38;;;3.30;99.90;;;;;;5027884;28;20434;-73
2022/12/04 12:43:37;;;;;;;28.75;18.67;;;3.30;99.90;;;;;;5016258;28;20449;-73
2022/12/04 12:46:05;;;;;;;26.70;17.50;;;3.40;99.90;;;;;;5029396;28;20843;-73
2022/12/04 12:49:01;;;;;;;30.73;19.38;;;3.40;99.90;;;;;;5028226;28;20422;-73
2022/12/04 12:51:34;;;;;;;25.90;16.67;;;3.40;99.90;;;;;;5026395;28;20467;-73
2022/12/04 12:54:41;;;;;;;26.93;18.37;;;3.40;99.90;;;;;;5021529;28;20422;-73
2022/12/04 12:57:26;;;;;;;29.58;18.67;;;3.40;99.90;;;;;;5011576;28;20736;-73
2022/12/04 13:00:13;;;;;;;28.55;18.35;;;3.40;99.90;;;;;;5029381;28;20414;-73
2022/12/04 13:02:54;;;;;;;32.78;19.02;;;3.50;99.90;;;;;;5030105;28;20435;-73
2022/12/04 13:05:48;;;;;;;31.15;19.15;;;3.40;99.90;;;;;;5017675;28;20500;-73
2022/12/04 13:08:39;;;;;;;32.03;19.95;;;3.50;99.90;;;;;;4999241;28;20417;-72
2022/12/04 13:11:14;;;;;;;32.70;20.23;;;3.50;99.90;;;;;;5008492;28;20966;-73
2022/12/04 13:13:51;;;;;;;31.10;19.17;;;3.50;99.90;;;;;;5011865;28;20413;-73